Corte Madera, California
Current Conditions -  °F | °C
As of 3:53 PM on Sunday 25 Jan 2015 (Local Time) from KOAK Reporting Station
Clear Clear  
Wind Chill: 57°   Ceiling: Unl
Heat Index: 57°   Visibility: 9mi
Dew Point: 43°   Wind: 3mph
Humidity: 59%   Direction: 240°WSW
Pressure: 30.02"   Gusts: NA
Location:  37.93°N, 122.52°W
Report Text: KOAK 252353Z 24003KT 9SM CLR 14/06 A3002 RMK AO2 SLP167 T01390061 10139 20106 56018
Loading
Personal Weather Stations






























Interactive Weather Map New forecast layout! Learn more

10-Day Weather Forecast

Advertisements
Track Severe Weather on mobile